Time;durP1;ratioP1;P1;durP2;ratioP2;P2;SDS_P1;SDS_P2;PMS_P1;PMS_P2;Temp;Humidity;BMP_temperature;BMP_pressure;BME280_temperature;BME280_humidity;BME280_pressure;Samples;Min_cycle;Max_cycle;Signal;HPM_P1;HPM_P2
2021/01/10 00:02:25;;;;;;;74.70;26.83;;;-0.90;93.50;;;;;;5069469;28;19947;-68
2021/01/10 00:04:50;;;;;;;75.70;24.55;;;-0.90;93.70;;;;;;5088149;28;20020;-68
2021/01/10 00:07:16;;;;;;;;;;;-0.90;93.50;;;;;;5069926;28;20036;-68
2021/01/10 00:09:41;;;;;;;65.03;24.23;;;-0.90;93.40;;;;;;5088124;28;20449;-67
2021/01/10 00:12:07;;;;;;;;;;;-0.90;93.50;;;;;;5070119;28;20063;-67
2021/01/10 00:14:33;;;;;;;68.70;26.15;;;-1.00;93.50;;;;;;5087204;28;19919;-66
2021/01/10 00:16:58;;;;;;;;;;;-1.00;93.80;;;;;;5088123;28;20435;-66
2021/01/10 00:19:24;;;;;;;90.10;27.73;;;-1.00;93.90;;;;;;5068779;28;19955;-66
2021/01/10 00:21:49;;;;;;;;;;;-1.10;94.10;;;;;;5069911;28;20027;-67
2021/01/10 00:24:15;;;;;;;85.53;25.73;;;-1.10;94.30;;;;;;5068694;28;20383;-66
2021/01/10 00:26:40;;;;;;;;;;;-1.10;94.40;;;;;;5087534;28;20106;-66
2021/01/10 00:29:08;;;;;;;69.78;24.58;;;-1.00;94.40;;;;;;5087071;28;19915;-66
2021/01/10 00:31:35;;;;;;;114.40;35.65;;;-1.00;94.40;;;;;;5086765;28;20427;-65
2021/01/10 00:34:01;;;;;;;123.50;38.40;;;-0.90;94.40;;;;;;5068913;28;20086;-66
2021/01/10 00:36:35;;;;;;;59.50;23.83;;;-0.90;94.30;;;;;;5086969;28;20032;-66
2021/01/10 00:39:01;;;;;;;59.03;23.35;;;-1.00;93.70;;;;;;5069251;28;20032;-66
2021/01/10 00:41:26;;;;;;;50.72;20.70;;;-1.00;93.60;;;;;;5087240;28;20028;-67
2021/01/10 00:43:52;;;;;;;;;;;-1.00;93.60;;;;;;5087606;28;20043;-66
2021/01/10 00:46:18;;;;;;;53.70;20.60;;;-1.00;93.60;;;;;;5086720;28;19908;-66
2021/01/10 00:48:43;;;;;;;;;;;-1.00;93.70;;;;;;5087575;28;20031;-66
2021/01/10 00:51:13;;;;;;;55.28;23.15;;;-0.90;93.50;;;;;;5086857;28;19908;-66
2021/01/10 00:53:40;;;;;;;54.10;22.55;;;-1.00;93.10;;;;;;5086659;28;20469;-66
2021/01/10 00:56:09;;;;;;;49.63;21.80;;;-1.00;93.10;;;;;;5086693;28;20108;-65
2021/01/10 00:58:35;;;;;;;64.32;25.73;;;-1.00;93.10;;;;;;5086359;28;20477;-66
2021/01/10 01:01:02;;;;;;;61.92;25.23;;;-1.00;93.00;;;;;;5086823;28;20046;-67
2021/01/10 01:03:28;;;;;;;57.30;24.15;;;-1.00;93.10;;;;;;5086351;28;20040;-66
2021/01/10 01:05:53;;;;;;;;;;;-1.00;93.40;;;;;;5087261;28;20035;-66
2021/01/10 01:08:19;;;;;;;51.15;20.55;;;-1.00;93.30;;;;;;5086733;28;19908;-67
2021/01/10 01:10:45;;;;;;;;;;;-1.00;93.30;;;;;;5087202;28;20467;-66
2021/01/10 01:13:11;;;;;;;50.80;20.63;;;-1.00;93.50;;;;;;5086352;28;19908;-67
2021/01/10 01:15:36;;;;;;;53.50;20.48;;;-1.00;93.20;;;;;;5086361;28;20124;-66
2021/01/10 01:18:02;;;;;;;;;;;-1.00;93.20;;;;;;5086877;28;20500;-66
2021/01/10 01:20:28;;;;;;;49.63;20.52;;;-1.10;93.10;;;;;;5086294;28;19954;-67
2021/01/10 01:22:53;;;;;;;63.55;23.58;;;-1.00;93.00;;;;;;5086416;28;20024;-66
2021/01/10 01:25:19;;;;;;;;;;;-1.10;93.10;;;;;;5086614;28;20039;-65
2021/01/10 01:27:44;;;;;;;52.63;19.50;;;-1.10;93.20;;;;;;5086281;28;19915;-66
2021/01/10 01:30:10;;;;;;;;;;;-1.00;93.30;;;;;;5068103;28;20119;-66
2021/01/10 01:32:36;;;;;;;63.17;24.52;;;-1.00;93.20;;;;;;5068435;28;19930;-65
2021/01/10 01:35:02;;;;;;;;;;;-1.00;93.10;;;;;;5086356;28;20032;-67
2021/01/10 01:37:27;;;;;;;49.80;21.63;;;-1.00;93.20;;;;;;5085896;28;19916;-66
2021/01/10 01:39:54;;;;;;;;;;;-1.10;93.00;;;;;;5086744;28;20032;-66
2021/01/10 01:42:19;;;;;;;55.35;22.13;;;-1.10;93.10;;;;;;5086463;28;19908;-67
2021/01/10 01:44:45;;;;;;;;;;;-1.10;93.00;;;;;;5067557;28;20069;-66
2021/01/10 01:47:16;;;;;;;51.63;21.58;;;-1.10;92.80;;;;;;5085845;28;19911;-66
2021/01/10 01:49:42;;;;;;;49.38;21.17;;;-1.10;93.10;;;;;;5085810;28;20039;-67
2021/01/10 01:52:08;;;;;;;;;;;-1.10;92.80;;;;;;5086449;28;20028;-66
2021/01/10 01:54:33;;;;;;;54.42;20.52;;;-1.10;92.90;;;;;;5086038;28;19950;-66
2021/01/10 01:57:00;;;;;;;;;;;-1.10;93.00;;;;;;5068001;28;20493;-66
2021/01/10 01:59:26;;;;;;;53.92;19.77;;;-1.10;93.10;;;;;;5085724;28;19998;-65
2021/01/10 02:01:51;;;;;;;57.45;21.92;;;-1.10;93.10;;;;;;5085784;28;20172;-66
2021/01/10 02:04:23;;;;;;;;;;;-1.00;93.10;;;;;;5086589;28;20151;-66
2021/01/10 02:07:06;;;;;;;42.33;17.00;;;-1.00;92.80;;;;;;5085752;28;19907;-66
2021/01/10 02:09:37;;;;;;;49.58;19.55;;;-1.10;92.30;;;;;;5085917;28;20043;-66
2021/01/10 02:12:04;;;;;;;48.05;20.83;;;-1.20;92.50;;;;;;5086149;28;20020;-66
2021/01/10 02:14:35;;;;;;;58.40;23.63;;;-1.20;92.50;;;;;;5067364;28;20445;-67
2021/01/10 02:17:01;;;;;;;52.15;22.50;;;-1.20;92.70;;;;;;5086077;28;20040;-66
2021/01/10 02:19:40;;;;;;;52.85;20.73;;;-1.20;92.80;;;;;;5085706;28;20016;-65
2021/01/10 02:22:09;;;;;;;62.40;23.08;;;-1.20;92.70;;;;;;5085895;28;20028;-67
2021/01/10 02:24:35;;;;;;;51.97;21.90;;;-1.20;92.50;;;;;;5085907;28;20027;-67
2021/01/10 02:27:05;;;;;;;44.10;18.92;;;-1.20;92.40;;;;;;5085650;28;20233;-65
2021/01/10 02:29:33;;;;;;;52.40;19.70;;;-1.10;92.20;;;;;;5084903;28;20603;-67
2021/01/10 02:32:02;;;;;;;44.83;19.10;;;-1.20;92.10;;;;;;5085584;28;20051;-66
2021/01/10 02:34:29;;;;;;;38.55;19.02;;;-1.10;92.10;;;;;;5085616;28;20024;-66
2021/01/10 02:37:16;;;;;;;40.55;18.25;;;-1.10;91.40;;;;;;5085371;28;20029;-66
2021/01/10 02:40:09;;;;;;;38.55;17.77;;;-1.20;91.40;;;;;;5085837;28;20441;-66
2021/01/10 02:42:48;;;;;;;42.97;17.88;;;-1.30;91.60;;;;;;5085061;28;20067;-69
2021/01/10 02:45:19;;;;;;;32.70;15.20;;;-1.30;91.90;;;;;;5085728;28;20050;-68
2021/01/10 02:47:45;;;;;;;36.55;16.15;;;-1.30;91.70;;;;;;5086863;28;20131;-69
2021/01/10 02:50:17;;;;;;;;;;;-1.20;91.10;;;;;;5089725;28;20114;-69
2021/01/10 02:52:48;;;;;;;38.08;15.45;;;-1.20;90.90;;;;;;5070977;28;19919;-69
2021/01/10 02:55:15;;;;;;;30.00;14.43;;;-1.20;90.90;;;;;;5089380;28;20032;-69
2021/01/10 02:57:52;;;;;;;31.50;15.02;;;-1.30;91.20;;;;;;5088488;28;20432;-69
2021/01/10 03:00:23;;;;;;;37.08;15.38;;;-1.30;91.00;;;;;;5071090;28;20024;-68
2021/01/10 03:02:49;;;;;;;35.78;15.80;;;-1.30;91.00;;;;;;5070711;28;20122;-68
2021/01/10 03:05:15;;;;;;;35.05;14.40;;;-1.40;91.20;;;;;;5089280;28;20028;-67
2021/01/10 03:07:44;;;;;;;37.80;16.00;;;-1.40;91.50;;;;;;5070812;28;20050;-67
2021/01/10 03:10:11;;;;;;;42.75;18.83;;;-1.50;91.80;;;;;;5088933;28;20082;-68
2021/01/10 03:12:36;;;;;;;43.22;16.58;;;-1.50;92.10;;;;;;5088348;28;20020;-67
2021/01/10 03:15:04;;;;;;;49.08;18.63;;;-1.50;92.30;;;;;;5088871;28;20040;-67
2021/01/10 03:17:46;;;;;;;43.85;18.35;;;-1.50;92.40;;;;;;5088629;28;20347;-68
2021/01/10 03:20:17;;;;;;;41.45;16.90;;;-1.40;92.30;;;;;;5088763;28;20084;-68
2021/01/10 03:22:47;;;;;;;44.92;18.20;;;-1.50;92.30;;;;;;5088604;28;20580;-68
2021/01/10 03:25:19;;;;;;;39.50;17.05;;;-1.50;92.60;;;;;;5088579;28;20043;-64
2021/01/10 03:27:44;;;;;;;45.30;16.80;;;-1.50;92.70;;;;;;5088263;28;20239;-65
2021/01/10 03:30:12;;;;;;;;;;;-1.50;92.80;;;;;;5089000;28;20096;-66
2021/01/10 03:32:37;;;;;;;;;;;-1.50;92.70;;;;;;5070630;28;19916;-66
2021/01/10 03:35:07;;;;;;;50.75;17.17;;;-1.40;92.60;;;;;;5088495;28;19911;-68
2021/01/10 03:37:34;;;;;;;51.55;20.58;;;-1.40;92.50;;;;;;5088355;28;20078;-65
2021/01/10 03:40:00;;;;;;;49.53;20.20;;;-1.40;92.60;;;;;;5088601;28;20024;-66
2021/01/10 03:42:26;;;;;;;53.45;19.65;;;-1.50;92.60;;;;;;5087957;28;20028;-66
2021/01/10 03:44:51;;;;;;;;;;;-1.40;92.70;;;;;;5089093;28;20031;-66
2021/01/10 03:47:17;;;;;;;48.78;17.65;;;-1.40;92.80;;;;;;5087755;28;19914;-66
2021/01/10 03:49:42;;;;;;;;;;;-1.40;92.70;;;;;;5088745;28;20419;-66
2021/01/10 03:52:08;;;;;;;50.65;18.60;;;-1.30;92.50;;;;;;5069901;28;20004;-65
2021/01/10 03:54:33;;;;;;;;;;;-1.40;92.40;;;;;;5088666;28;20153;-65
2021/01/10 03:56:59;;;;;;;50.90;19.33;;;-1.40;92.40;;;;;;5087787;28;19916;-64
2021/01/10 03:59:25;;;;;;;;;;;-1.40;92.60;;;;;;5087801;28;20027;-66
2021/01/10 04:01:50;;;;;;;54.60;19.80;;;-1.40;92.90;;;;;;5087649;28;19908;-65
2021/01/10 04:04:16;;;;;;;;;;;-1.40;92.90;;;;;;5088255;28;20488;-66
2021/01/10 04:06:41;;;;;;;54.63;20.70;;;-1.40;92.80;;;;;;5088066;28;19915;-67
2021/01/10 04:09:07;;;;;;;59.38;20.35;;;-1.30;92.70;;;;;;5088111;28;20078;-66
2021/01/10 04:11:32;;;;;;;;;;;-1.30;92.60;;;;;;5087624;28;20230;-66
2021/01/10 04:13:58;;;;;;;67.25;21.90;;;-1.30;92.70;;;;;;5087641;28;19911;-67
2021/01/10 04:16:24;;;;;;;;;;;-1.30;92.90;;;;;;5087724;28;20032;-67
2021/01/10 04:18:49;;;;;;;62.17;19.25;;;-1.30;92.90;;;;;;5087621;28;19912;-66
2021/01/10 04:21:15;;;;;;;;;;;-1.30;92.90;;;;;;5088049;28;20491;-66
2021/01/10 04:23:40;;;;;;;54.42;18.83;;;-1.40;93.00;;;;;;5087015;28;19953;-66
2021/01/10 04:26:06;;;;;;;;;;;-1.40;93.10;;;;;;5088016;28;20565;-66
2021/01/10 04:28:32;;;;;;;45.72;15.80;;;-1.40;93.20;;;;;;5087155;28;20398;-67
2021/01/10 04:30:59;;;;;;;;;;;-1.40;93.40;;;;;;5087366;28;20043;-67
2021/01/10 04:33:25;;;;;;;49.63;19.65;;;-1.30;93.40;;;;;;5087041;28;20525;-66
2021/01/10 04:35:50;;;;;;;;;;;-1.30;93.20;;;;;;5087947;28;20043;-66
2021/01/10 04:38:16;;;;;;;39.88;17.90;;;-1.30;93.10;;;;;;5086922;28;20019;-66
2021/01/10 04:40:42;;;;;;;;;;;-1.30;93.20;;;;;;5087323;28;20035;-65
2021/01/10 04:43:08;;;;;;;47.80;19.38;;;-1.30;93.10;;;;;;5086748;28;20602;-66
2021/01/10 04:45:33;;;;;;;;;;;-1.30;93.20;;;;;;5087508;28;20056;-66
2021/01/10 04:48:00;;;;;;;51.20;18.45;;;-1.20;93.30;;;;;;5086659;28;19966;-66
2021/01/10 04:50:26;;;;;;;51.75;19.90;;;-1.20;93.20;;;;;;5087042;28;20502;-65
2021/01/10 04:52:52;;;;;;;;;;;-1.10;93.00;;;;;;5087009;28;20107;-66
2021/01/10 04:55:20;;;;;;;40.83;18.92;;;-1.10;92.10;;;;;;5086807;28;19930;-65
2021/01/10 04:57:48;;;;;;;45.22;18.65;;;-1.10;92.00;;;;;;5086585;28;20044;-65
2021/01/10 05:00:15;;;;;;;47.20;21.73;;;-1.10;92.10;;;;;;5068573;28;20043;-66
2021/01/10 05:02:46;;;;;;;46.30;21.77;;;-1.10;92.00;;;;;;5086214;28;20130;-66
2021/01/10 05:05:13;;;;;;;49.92;21.95;;;-1.20;92.10;;;;;;5086959;28;20108;-66
2021/01/10 05:07:41;;;;;;;47.67;19.60;;;-1.10;92.20;;;;;;5086273;28;20039;-65
2021/01/10 05:10:07;;;;;;;66.50;27.95;;;-1.10;92.10;;;;;;5085057;28;20519;-66
2021/01/10 05:12:33;;;;;;;62.55;25.45;;;-1.00;91.50;;;;;;5085941;28;20036;-66
2021/01/10 05:14:58;;;;;;;;;;;-1.00;91.50;;;;;;5087068;28;20595;-65
2021/01/10 05:17:24;;;;;;;46.10;19.58;;;-1.10;91.60;;;;;;5085981;28;19919;-66
2021/01/10 05:19:50;;;;;;;;;;;-1.10;91.80;;;;;;5086384;28;20070;-65
2021/01/10 05:22:16;;;;;;;39.42;19.25;;;-1.00;91.70;;;;;;5081539;28;20493;-65
2021/01/10 05:24:50;;;;;;;45.95;19.50;;;-1.10;91.70;;;;;;5081011;28;20121;-66
2021/01/10 05:27:16;;;;;;;47.80;21.10;;;-1.10;91.80;;;;;;5082225;28;20078;-65
2021/01/10 05:29:43;;;;;;;50.90;22.40;;;-1.10;92.00;;;;;;5085486;28;20039;-66
2021/01/10 05:32:09;;;;;;;49.80;23.25;;;-1.10;92.10;;;;;;5083651;28;20052;-64
2021/01/10 05:34:35;;;;;;;49.25;21.65;;;-1.10;92.20;;;;;;5084600;28;20039;-64
2021/01/10 05:37:11;;;;;;;;;;;-1.10;92.20;;;;;;5065462;28;20044;-65
2021/01/10 05:39:43;;;;;;;46.10;19.33;;;-1.10;92.00;;;;;;5084903;28;19920;-65
2021/01/10 05:42:10;;;;;;;52.15;21.02;;;-1.00;92.00;;;;;;5084669;28;20036;-66
2021/01/10 05:44:38;;;;;;;47.75;21.08;;;-1.00;91.70;;;;;;5085210;28;20675;-66
2021/01/10 05:47:05;;;;;;;49.40;22.17;;;-1.00;91.80;;;;;;5085352;28;20040;-65
2021/01/10 05:49:31;;;;;;;44.60;21.42;;;-1.00;91.90;;;;;;5084157;28;20036;-66
2021/01/10 05:52:07;;;;;;;59.60;28.23;;;-1.00;91.90;;;;;;5084941;28;20130;-65
2021/01/10 05:54:37;;;;;;;51.27;24.57;;;-1.00;91.90;;;;;;5085365;28;20054;-65
2021/01/10 05:57:08;;;;;;;52.35;24.73;;;-1.10;92.10;;;;;;5066591;28;20301;-67
2021/01/10 05:59:36;;;;;;;54.17;24.15;;;-1.10;92.20;;;;;;5084986;28;20032;-66
2021/01/10 06:02:05;;;;;;;58.08;26.08;;;-1.10;92.20;;;;;;5085232;28;20152;-66
2021/01/10 06:04:32;;;;;;;53.17;23.88;;;-1.00;92.20;;;;;;5085238;28;20028;-65
2021/01/10 06:06:59;;;;;;;53.45;23.95;;;-1.10;92.10;;;;;;5084785;28;20036;-65
2021/01/10 06:09:25;;;;;;;58.38;29.40;;;-1.10;92.20;;;;;;5064971;28;20024;-66
2021/01/10 06:11:51;;;;;;;51.17;22.38;;;-1.10;92.10;;;;;;5085857;28;20027;-65
2021/01/10 06:14:21;;;;;;;;;;;-1.00;92.20;;;;;;5086287;28;20346;-66
2021/01/10 06:16:55;;;;;;;48.83;22.48;;;-1.10;92.10;;;;;;5086058;28;19908;-65
2021/01/10 06:19:27;;;;;;;42.97;19.48;;;-1.00;92.20;;;;;;5085736;28;20396;-66
2021/01/10 06:21:59;;;;;;;57.30;29.45;;;-1.00;92.20;;;;;;5069066;28;20040;-65
2021/01/10 06:24:31;;;;;;;45.20;23.75;;;-1.00;92.20;;;;;;5071234;28;20024;-67
2021/01/10 06:27:08;;;;;;;43.67;21.33;;;-1.00;92.20;;;;;;5089529;28;20538;-66
2021/01/10 06:29:39;;;;;;;52.33;23.73;;;-0.90;92.10;;;;;;5071295;28;20024;-67
2021/01/10 06:32:11;;;;;;;50.65;25.02;;;-0.90;92.00;;;;;;5089037;28;20058;-67
2021/01/10 06:34:41;;;;;;;65.78;35.72;;;-0.90;91.90;;;;;;5089711;28;20377;-67
2021/01/10 06:37:08;;;;;;;60.63;33.33;;;-0.80;91.20;;;;;;5070882;28;20036;-65
2021/01/10 06:39:47;;;;;;;39.13;19.98;;;-0.90;91.00;;;;;;5089170;28;20613;-65
2021/01/10 06:42:15;;;;;;;40.72;20.52;;;-0.90;90.80;;;;;;5089122;28;20062;-66
2021/01/10 06:44:46;;;;;;;35.03;17.10;;;-0.90;91.00;;;;;;5089127;28;20020;-65
2021/01/10 06:47:21;;;;;;;32.17;16.15;;;-0.90;90.70;;;;;;5070824;28;20070;-66
2021/01/10 06:49:47;;;;;;;50.35;24.42;;;-0.90;90.70;;;;;;5071418;28;20099;-65
2021/01/10 06:52:14;;;;;;;48.88;22.52;;;-1.00;90.50;;;;;;5089512;28;20035;-66
2021/01/10 06:54:41;;;;;;;53.85;26.45;;;-0.90;90.30;;;;;;5088707;28;20833;-66
2021/01/10 06:57:08;;;;;;;37.42;19.10;;;-0.90;90.20;;;;;;5089120;28;20036;-66
2021/01/10 06:59:57;;;;;;;35.85;16.33;;;-0.90;90.20;;;;;;5089203;28;20063;-66
2021/01/10 07:02:24;;;;;;;29.70;13.85;;;-0.90;90.20;;;;;;5089370;28;20813;-66
2021/01/10 07:04:54;;;;;;;33.45;16.30;;;-0.90;89.90;;;;;;5089205;28;20039;-66
2021/01/10 07:07:34;;;;;;;37.17;17.35;;;-0.80;90.10;;;;;;5088568;28;20142;-66
2021/01/10 07:10:01;;;;;;;33.08;16.77;;;-0.80;89.90;;;;;;5088307;28;20422;-66
2021/01/10 07:12:27;;;;;;;37.00;17.77;;;-0.80;89.90;;;;;;5089152;28;20114;-66
2021/01/10 07:14:52;;;;;;;;;;;-0.70;90.00;;;;;;5089232;28;20119;-66
2021/01/10 07:17:19;;;;;;;40.95;18.20;;;-0.70;89.40;;;;;;5070580;28;19979;-66
2021/01/10 07:19:47;;;;;;;38.17;18.15;;;-0.70;89.70;;;;;;5088864;28;20514;-66
2021/01/10 07:22:33;;;;;;;38.38;19.45;;;-0.70;90.10;;;;;;5070081;28;20028;-66
2021/01/10 07:25:48;;;;;;;33.30;16.75;;;-0.70;89.50;;;;;;5088456;28;20051;-66
2021/01/10 07:28:32;;;;;;;36.72;18.00;;;-0.60;89.60;;;;;;5079151;28;20044;-66
2021/01/10 07:31:18;;;;;;;35.13;17.38;;;-0.50;89.10;;;;;;5088284;28;20059;-66
2021/01/10 07:33:45;;;;;;;43.75;17.77;;;-0.50;87.10;;;;;;5087600;28;20031;-65
2021/01/10 07:36:11;;;;;;;37.20;18.60;;;-0.60;88.10;;;;;;5088149;28;20039;-66
2021/01/10 07:38:39;;;;;;;42.85;19.20;;;-0.60;88.80;;;;;;5070356;28;20077;-67
2021/01/10 07:41:21;;;;;;;41.53;19.45;;;-0.70;89.80;;;;;;5088069;28;20479;-65
2021/01/10 07:43:52;;;;;;;42.20;19.90;;;-0.70;90.00;;;;;;5088436;28;20027;-66
2021/01/10 07:47:02;;;;;;;40.92;18.58;;;-0.70;90.20;;;;;;5088284;28;20068;-66
2021/01/10 07:49:31;;;;;;;41.88;18.65;;;-0.70;90.30;;;;;;5084547;28;20129;-66
2021/01/10 07:51:58;;;;;;;36.22;18.77;;;-0.60;90.30;;;;;;5087841;28;20051;-66
2021/01/10 07:54:50;;;;;;;46.42;19.80;;;-0.60;90.30;;;;;;5088109;28;20028;-66
2021/01/10 07:57:33;;;;;;;54.40;29.00;;;-0.50;89.80;;;;;;5088068;28;20603;-66
2021/01/10 08:00:13;;;;;;;54.35;27.38;;;-0.50;89.80;;;;;;5087997;28;20031;-66
2021/01/10 08:03:05;;;;;;;57.47;27.58;;;-0.50;90.10;;;;;;5087764;28;20088;-66
2021/01/10 08:05:41;;;;;;;56.40;30.23;;;-0.50;90.20;;;;;;5087652;28;20027;-66
2021/01/10 08:08:17;;;;;;;38.97;19.65;;;-0.50;89.80;;;;;;5087398;28;20618;-65
2021/01/10 08:10:53;;;;;;;35.03;18.63;;;-0.40;89.20;;;;;;5087109;28;20032;-66
2021/01/10 08:13:37;;;;;;;;;;;-0.40;88.00;;;;;;5087781;28;20016;-66
2021/01/10 08:16:08;;;;;;;86.72;41.38;;;-0.40;88.00;;;;;;5087274;28;20079;-66
2021/01/10 08:18:37;;;;;;;34.53;15.68;;;-0.30;87.30;;;;;;5087704;28;20043;-66
2021/01/10 08:21:05;;;;;;;40.20;18.55;;;-0.30;86.00;;;;;;5087485;28;20526;-66
2021/01/10 08:23:31;;;;;;;31.33;15.80;;;-0.20;85.90;;;;;;5068874;28;20451;-66
2021/01/10 08:26:12;;;;;;;34.85;16.73;;;-0.10;85.70;;;;;;5086931;28;20135;-66
2021/01/10 08:28:42;;;;;;;38.55;19.65;;;-0.10;86.00;;;;;;5087334;28;20019;-66
2021/01/10 08:31:10;;;;;;;41.17;21.35;;;-0.10;86.20;;;;;;5087363;28;20056;-66
2021/01/10 08:33:36;;;;;;;39.15;18.80;;;-0.10;86.70;;;;;;5087350;28;20485;-66
2021/01/10 08:36:14;;;;;;;39.10;18.95;;;0.00;86.80;;;;;;5087373;28;20031;-66
2021/01/10 08:38:52;;;;;;;34.85;19.33;;;0.00;85.40;;;;;;5086991;28;20034;-66
2021/01/10 08:41:26;;;;;;;34.05;16.17;;;0.00;85.10;;;;;;5086913;28;20031;-66
2021/01/10 08:44:04;;;;;;;32.05;16.85;;;0.00;84.50;;;;;;5068807;28;20035;-66
2021/01/10 08:46:32;;;;;;;29.13;14.48;;;0.00;84.60;;;;;;5086220;28;20148;-66
2021/01/10 08:48:58;;;;;;;37.53;17.40;;;0.10;83.90;;;;;;5086708;28;20059;-65
2021/01/10 08:51:27;;;;;;;43.80;21.73;;;0.20;84.40;;;;;;5069023;28;20035;-66
2021/01/10 08:53:53;;;;;;;40.92;20.00;;;0.10;85.10;;;;;;5086256;28;20039;-66
2021/01/10 08:56:20;;;;;;;;;;;0.10;86.20;;;;;;5069169;28;20024;-66
2021/01/10 08:58:45;;;;;;;205.27;82.35;;;0.10;85.70;;;;;;5068933;28;20443;-66
2021/01/10 09:01:19;;;;;;;;;;;0.10;86.70;;;;;;5087369;28;20051;-66
2021/01/10 09:04:10;;;;;;;73.53;31.38;;;0.10;86.60;;;;;;5086563;28;19915;-66
2021/01/10 09:06:45;;;;;;;50.85;23.55;;;0.10;86.70;;;;;;5067885;28;20395;-66
2021/01/10 09:09:39;;;;;;;54.85;27.55;;;0.20;86.30;;;;;;5086275;28;20492;-64
2021/01/10 09:12:42;;;;;;;44.13;20.90;;;0.10;87.00;;;;;;5067948;28;20082;-67
2021/01/10 09:15:22;;;;;;;49.00;23.95;;;0.20;86.80;;;;;;5086233;28;20080;-67
2021/01/10 09:17:56;;;;;;;50.60;22.98;;;0.30;86.00;;;;;;5085707;28;20373;-67
2021/01/10 09:20:29;;;;;;;43.67;22.25;;;0.20;85.60;;;;;;5085893;28;20035;-67
2021/01/10 09:22:57;;;;;;;61.45;30.75;;;0.20;86.20;;;;;;5086185;28;20066;-66
2021/01/10 09:25:22;;;;;;;47.83;24.88;;;0.20;85.50;;;;;;5086413;28;20020;-66
2021/01/10 09:28:07;;;;;;;;;;;0.20;85.00;;;;;;5067392;28;20105;-67
2021/01/10 09:30:34;;;;;;;54.50;27.83;;;0.20;85.40;;;;;;5086059;28;19920;-66
2021/01/10 09:33:02;;;;;;;48.03;24.73;;;0.40;85.20;;;;;;5084630;28;20042;-66
2021/01/10 09:35:46;;;;;;;47.35;22.35;;;0.40;84.40;;;;;;5085259;28;20411;-66
2021/01/10 09:38:16;;;;;;;46.65;22.83;;;0.50;84.10;;;;;;5084512;28;20504;-66
2021/01/10 09:41:09;;;;;;;46.17;23.55;;;0.60;83.20;;;;;;5067842;28;20062;-67
2021/01/10 09:43:41;;;;;;;68.13;35.28;;;0.70;83.10;;;;;;5085906;28;20071;-66
2021/01/10 09:46:28;;;;;;;51.10;23.75;;;0.60;83.10;;;;;;5086427;28;20032;-66
2021/01/10 09:48:56;;;;;;;;;;;0.70;82.40;;;;;;5086269;28;20031;-67
2021/01/10 09:51:23;;;;;;;42.03;20.13;;;0.70;82.30;;;;;;5067928;28;19915;-67
2021/01/10 09:53:48;;;;;;;;;;;0.70;82.10;;;;;;5085986;28;20024;-66
2021/01/10 09:56:39;;;;;;;42.08;21.13;;;0.70;81.60;;;;;;5086563;28;19908;-66
2021/01/10 09:59:23;;;;;;;46.35;21.00;;;0.80;81.60;;;;;;5090041;28;20039;-66
2021/01/10 10:01:50;;;;;;;49.38;22.15;;;0.90;81.10;;;;;;5089961;28;20044;-67
2021/01/10 10:04:28;;;;;;;46.38;20.70;;;0.80;81.70;;;;;;5072496;28;20059;-65
2021/01/10 10:06:53;;;;;;;47.03;23.13;;;0.70;82.00;;;;;;5089509;28;20032;-66
2021/01/10 10:09:19;;;;;;;;;;;0.70;82.90;;;;;;5090106;28;20511;-67
2021/01/10 10:11:45;;;;;;;52.65;26.13;;;0.70;82.30;;;;;;5090178;28;20049;-67
2021/01/10 10:14:10;;;;;;;;;;;0.80;82.70;;;;;;5072268;28;20149;-66
2021/01/10 10:16:36;;;;;;;51.05;21.20;;;0.90;81.40;;;;;;5089622;28;19912;-67
2021/01/10 10:19:02;;;;;;;;;;;0.90;81.40;;;;;;5090545;28;20047;-67
2021/01/10 10:21:28;;;;;;;46.80;22.85;;;0.80;80.90;;;;;;5089640;28;19965;-66
2021/01/10 10:23:53;;;;;;;;;;;0.70;82.00;;;;;;5090159;28;20024;-67
2021/01/10 10:26:19;;;;;;;50.42;22.23;;;0.60;82.80;;;;;;5089921;28;19947;-66
2021/01/10 10:28:44;;;;;;;;;;;0.70;82.70;;;;;;5089998;28;20048;-66
2021/01/10 10:31:13;;;;;;;43.88;21.90;;;0.60;82.50;;;;;;5089780;28;19977;-67
2021/01/10 10:33:39;;;;;;;42.00;20.55;;;0.50;83.20;;;;;;5088990;28;20028;-67
2021/01/10 10:36:05;;;;;;;71.13;40.17;;;0.40;82.50;;;;;;5089557;28;20078;-66
2021/01/10 10:38:32;;;;;;;46.30;23.33;;;0.40;83.10;;;;;;5088857;28;20036;-66
2021/01/10 10:40:58;;;;;;;50.78;21.98;;;0.40;83.70;;;;;;5089671;28;20073;-67
2021/01/10 10:43:25;;;;;;;;;;;0.50;83.40;;;;;;5071863;28;20028;-66
2021/01/10 10:45:51;;;;;;;50.20;21.33;;;0.50;82.90;;;;;;5089177;28;19915;-67
2021/01/10 10:48:17;;;;;;;68.38;31.17;;;0.40;82.80;;;;;;5089376;28;20120;-66
2021/01/10 10:50:42;;;;;;;;;;;0.50;83.20;;;;;;5089856;28;20103;-66
2021/01/10 10:53:08;;;;;;;90.35;42.72;;;0.60;83.10;;;;;;5089091;28;19937;-66
2021/01/10 10:55:34;;;;;;;;;;;0.60;82.70;;;;;;5071147;28;20028;-67
2021/01/10 10:58:00;;;;;;;60.22;29.70;;;0.60;82.30;;;;;;5089461;28;19930;-67
2021/01/10 11:00:25;;;;;;;;;;;0.60;82.20;;;;;;5089955;28;20024;-67
2021/01/10 11:02:51;;;;;;;51.13;23.67;;;0.70;81.80;;;;;;5071104;28;19911;-67
2021/01/10 11:05:17;;;;;;;;;;;0.70;81.80;;;;;;5089366;28;20091;-65
2021/01/10 11:07:43;;;;;;;57.50;27.10;;;0.80;81.50;;;;;;5070266;28;20385;-67
2021/01/10 11:10:09;;;;;;;;;;;0.80;81.60;;;;;;5088843;28;20024;-68
2021/01/10 11:12:35;;;;;;;55.65;25.98;;;0.90;81.10;;;;;;5088785;28;19908;-68
2021/01/10 11:15:00;;;;;;;;;;;0.80;80.50;;;;;;5089342;28;20077;-68
2021/01/10 11:17:26;;;;;;;43.00;19.25;;;0.90;80.70;;;;;;5088805;28;19916;-68
2021/01/10 11:19:51;;;;;;;;;;;0.90;80.60;;;;;;5089749;28;20036;-68
2021/01/10 11:22:17;;;;;;;44.67;21.40;;;0.80;80.80;;;;;;5088218;28;20474;-67
2021/01/10 11:24:43;;;;;;;;;;;0.80;80.90;;;;;;5089216;28;20081;-68
2021/01/10 11:27:10;;;;;;;48.58;22.25;;;0.70;81.30;;;;;;5089026;28;19904;-68
2021/01/10 11:29:37;;;;;;;53.03;23.27;;;0.60;81.60;;;;;;5070324;28;20067;-67
2021/01/10 11:32:03;;;;;;;50.85;23.08;;;0.60;81.60;;;;;;5049284;28;20044;-67
2021/01/10 11:34:29;;;;;;;56.55;26.80;;;0.60;81.80;;;;;;5046892;28;20496;-66
2021/01/10 11:36:55;;;;;;;;;;;0.60;82.50;;;;;;5047763;28;20064;-67
2021/01/10 11:39:22;;;;;;;74.57;35.42;;;0.70;81.90;;;;;;5048140;28;19923;-67
2021/01/10 11:41:50;;;;;;;62.30;29.30;;;0.80;82.30;;;;;;5047870;28;20047;-67
2021/01/10 11:44:17;;;;;;;55.65;26.58;;;0.90;81.30;;;;;;5048390;28;20036;-67
2021/01/10 11:46:45;;;;;;;49.78;23.02;;;1.00;81.10;;;;;;5048119;28;20036;-68
2021/01/10 11:49:11;;;;;;;47.65;22.17;;;0.90;80.80;;;;;;5047379;28;20021;-65
2021/01/10 11:51:37;;;;;;;48.53;22.83;;;1.10;80.60;;;;;;5047603;28;20061;-67
2021/01/10 11:54:03;;;;;;;;;;;1.00;80.00;;;;;;5048026;28;20075;-67
2021/01/10 11:56:28;;;;;;;52.00;23.58;;;1.00;80.00;;;;;;5046898;28;20443;-68
2021/01/10 11:58:54;;;;;;;;;;;1.00;80.30;;;;;;5047271;28;20132;-67
2021/01/10 12:01:19;;;;;;;52.08;25.42;;;1.00;80.90;;;;;;5047004;28;20391;-68
2021/01/10 12:03:47;;;;;;;;;;;1.00;81.00;;;;;;5046884;28;20481;-68
2021/01/10 12:06:18;;;;;;;47.67;22.60;;;1.10;80.80;;;;;;5047247;28;19909;-68
2021/01/10 12:08:44;;;;;;;49.22;22.92;;;1.20;79.80;;;;;;5046300;28;20434;-67
2021/01/10 12:11:13;;;;;;;;;;;1.20;79.70;;;;;;5047780;28;20099;-68
2021/01/10 12:13:39;;;;;;;44.33;20.95;;;1.30;79.00;;;;;;5047573;28;19904;-68
2021/01/10 12:16:05;;;;;;;;;;;1.30;79.30;;;;;;5047645;28;20021;-66
2021/01/10 12:18:30;;;;;;;51.78;24.98;;;1.20;79.50;;;;;;5046144;28;19966;-67
2021/01/10 12:20:56;;;;;;;;;;;1.10;79.70;;;;;;5047218;28;20446;-67
2021/01/10 12:23:23;;;;;;;65.05;31.27;;;1.10;80.10;;;;;;5047001;28;20293;-67
2021/01/10 12:25:49;;;;;;;55.53;28.90;;;1.00;80.40;;;;;;5047111;28;20511;-69
2021/01/10 12:28:14;;;;;;;;;;;0.90;80.30;;;;;;5047306;28;20032;-68
2021/01/10 12:30:40;;;;;;;49.30;21.30;;;1.00;80.00;;;;;;5052207;28;19916;-68
2021/01/10 12:33:05;;;;;;;;;;;1.00;79.80;;;;;;5067458;28;20511;-68
2021/01/10 12:35:31;;;;;;;48.92;22.20;;;1.10;79.80;;;;;;5065401;28;19909;-67
2021/01/10 12:37:57;;;;;;;;;;;0.90;80.10;;;;;;5067179;28;20036;-67
2021/01/10 12:40:22;;;;;;;47.28;22.00;;;0.90;80.60;;;;;;5065670;28;20318;-68
2021/01/10 12:42:48;;;;;;;;;;;1.00;80.40;;;;;;5067373;28;20031;-68
2021/01/10 12:45:15;;;;;;;45.47;20.52;;;1.00;80.20;;;;;;5066835;28;19915;-66
2021/01/10 12:47:45;;;;;;;44.60;20.10;;;1.10;79.50;;;;;;5066521;28;20078;-66
2021/01/10 12:50:12;;;;;;;48.03;21.90;;;1.10;79.80;;;;;;5067127;28;20042;-67
2021/01/10 12:52:39;;;;;;;111.88;49.80;;;1.00;79.70;;;;;;5066209;28;20097;-64
2021/01/10 12:55:06;;;;;;;94.57;42.90;;;0.90;80.50;;;;;;5066884;28;20039;-66
2021/01/10 12:57:32;;;;;;;97.00;43.90;;;0.90;80.80;;;;;;5066102;28;20497;-66
2021/01/10 12:59:58;;;;;;;67.63;30.45;;;0.90;80.90;;;;;;5066957;28;20109;-66
2021/01/10 13:02:23;;;;;;;;;;;0.90;81.00;;;;;;5067121;28;20459;-66
2021/01/10 13:04:50;;;;;;;73.43;32.92;;;0.90;81.10;;;;;;5066452;28;19908;-66